createdAt,value
2023-02-09T00:00:36.078Z,98.30
2023-02-09T00:01:36.125Z,98.30
2023-02-09T00:02:36.055Z,98.24
2023-02-09T00:03:36.978Z,98.24
2023-02-09T00:04:36.022Z,98.35
2023-02-09T00:05:36.018Z,98.35
2023-02-09T00:06:35.990Z,98.35
2023-02-09T00:07:35.993Z,98.35
2023-02-09T00:08:35.997Z,98.45
2023-02-09T00:09:35.952Z,98.45
2023-02-09T00:10:35.957Z,98.45
2023-02-09T00:11:36.008Z,98.45
2023-02-09T00:12:35.934Z,98.66
2023-02-09T00:13:35.936Z,98.77
2023-02-09T00:14:35.917Z,98.56
2023-02-09T00:15:35.894Z,98.45
2023-02-09T00:16:35.968Z,98.13
2023-02-09T00:17:35.936Z,97.86
2023-02-09T00:18:35.882Z,97.75
2023-02-09T00:19:35.878Z,97.64
2023-02-09T00:20:35.900Z,97.58
2023-02-09T00:21:35.873Z,97.58
2023-02-09T00:22:35.833Z,97.79
2023-02-09T00:23:35.854Z,97.86
2023-02-09T00:24:35.812Z,97.86
2023-02-09T00:25:35.809Z,97.75
2023-02-09T00:26:35.812Z,97.90
2023-02-09T00:27:36.043Z,97.96
2023-02-09T00:28:35.785Z,98.07
2023-02-09T00:29:35.861Z,98.39
2023-02-09T00:30:35.857Z,98.18
2023-02-09T00:31:35.983Z,98.39
2023-02-09T00:32:35.738Z,98.28
2023-02-09T00:33:35.748Z,98.39
2023-02-09T00:34:35.741Z,98.28
2023-02-09T00:35:35.710Z,98.39
2023-02-09T00:36:35.704Z,98.50
2023-02-09T00:37:35.743Z,98.28
2023-02-09T00:38:35.703Z,98.18
2023-02-09T00:39:35.691Z,98.18
2023-02-09T00:40:35.664Z,98.18
2023-02-09T00:41:35.646Z,98.18
2023-02-09T00:42:35.668Z,98.07
2023-02-09T00:43:35.634Z,98.07
2023-02-09T00:44:35.632Z,98.07
2023-02-09T00:45:35.720Z,98.00
2023-02-09T00:46:35.642Z,97.90
2023-02-09T00:47:35.592Z,97.90
2023-02-09T00:48:35.584Z,97.90
2023-02-09T00:49:35.572Z,97.79
2023-02-09T00:50:35.568Z,97.79
2023-02-09T00:51:35.575Z,97.90
2023-02-09T00:52:35.613Z,97.96
2023-02-09T00:53:35.574Z,97.96
2023-02-09T00:54:35.566Z,97.96
2023-02-09T00:55:36.378Z,97.96
2023-02-09T00:56:35.515Z,97.96
2023-02-09T00:57:35.511Z,98.07
2023-02-09T00:58:35.499Z,97.96
2023-02-09T00:59:35.608Z,98.07
2023-02-09T01:00:35.536Z,97.96
2023-02-09T01:01:36.480Z,98.11
2023-02-09T01:02:35.451Z,98.00
2023-02-09T01:03:35.440Z,98.11
2023-02-09T01:04:35.496Z,98.11
2023-02-09T01:05:35.420Z,98.18
2023-02-09T01:06:35.481Z,98.33
2023-02-09T01:07:35.405Z,98.50
2023-02-09T01:08:35.419Z,98.39
2023-02-09T01:09:35.444Z,98.28
2023-02-09T01:10:35.429Z,98.39
2023-02-09T01:11:35.388Z,98.28
2023-02-09T01:12:35.356Z,98.28
2023-02-09T01:13:35.340Z,98.07
2023-02-09T01:14:35.333Z,98.18
2023-02-09T01:15:35.352Z,98.11
2023-02-09T01:16:35.451Z,98.33
2023-02-09T01:17:35.320Z,98.54
2023-02-09T01:18:35.391Z,98.50
2023-02-09T01:19:35.292Z,98.50
2023-02-09T01:20:35.279Z,98.39
2023-02-09T01:21:35.324Z,98.39
2023-02-09T01:22:35.261Z,98.33
2023-02-09T01:23:35.269Z,98.33
2023-02-09T01:24:35.253Z,98.33
2023-02-09T01:25:35.265Z,98.33
2023-02-09T01:26:35.856Z,98.33
2023-02-09T01:27:35.215Z,98.54
2023-02-09T01:28:35.200Z,98.33
2023-02-09T01:29:35.194Z,98.22
2023-02-09T01:30:35.292Z,98.00
2023-02-09T01:31:35.317Z,97.90
2023-02-09T01:32:35.230Z,97.94
2023-02-09T01:33:35.152Z,97.73
2023-02-09T01:34:35.171Z,97.73
2023-02-09T01:35:35.137Z,97.73
2023-02-09T01:36:35.169Z,97.63
2023-02-09T01:37:35.114Z,97.63
2023-02-09T01:38:35.121Z,97.63
2023-02-09T01:39:35.150Z,97.52
2023-02-09T01:40:35.090Z,97.30
2023-02-09T01:41:35.100Z,97.30
2023-02-09T01:42:35.086Z,97.09
2023-02-09T01:43:35.058Z,97.13
2023-02-09T01:44:35.860Z,97.03
2023-02-09T01:45:35.063Z,96.81
2023-02-09T01:46:35.097Z,96.81
2023-02-09T01:47:35.035Z,96.81
2023-02-09T01:48:35.018Z,96.81
2023-02-09T01:49:35.063Z,96.81
2023-02-09T01:50:35.096Z,96.81
2023-02-09T01:51:34.991Z,96.81
2023-02-09T01:52:35.037Z,96.92
2023-02-09T01:53:35.001Z,96.81
2023-02-09T01:54:34.987Z,97.03
2023-02-09T01:55:34.950Z,97.03
2023-02-09T01:56:34.996Z,97.13
2023-02-09T01:57:34.982Z,97.41
2023-02-09T01:58:34.950Z,97.41
2023-02-09T01:59:34.923Z,97.52
2023-02-09T02:00:34.907Z,97.36
2023-02-09T02:01:35.038Z,97.36
2023-02-09T02:02:35.919Z,97.26
2023-02-09T02:03:34.886Z,97.15
2023-02-09T02:04:34.882Z,97.05
2023-02-09T02:05:34.855Z,97.05
2023-02-09T02:06:34.862Z,96.83
2023-02-09T02:07:34.879Z,96.72
2023-02-09T02:08:34.830Z,96.62
2023-02-09T02:09:34.860Z,96.51
2023-02-09T02:10:34.821Z,96.62
2023-02-09T02:11:34.908Z,96.51
2023-02-09T02:12:34.802Z,96.51
2023-02-09T02:13:34.830Z,96.51
2023-02-09T02:14:34.784Z,96.51
2023-02-09T02:15:34.813Z,96.30
2023-02-09T02:16:34.764Z,96.23
2023-02-09T02:17:34.734Z,96.34
2023-02-09T02:18:34.749Z,96.23
2023-02-09T02:19:34.746Z,96.23
2023-02-09T02:20:34.711Z,96.23
2023-02-09T02:21:34.720Z,96.23
2023-02-09T02:22:34.697Z,96.23
2023-02-09T02:23:34.725Z,96.13
2023-02-09T02:24:34.800Z,96.23
2023-02-09T02:25:34.671Z,96.28
2023-02-09T02:26:34.658Z,96.28
2023-02-09T02:27:34.655Z,96.17
2023-02-09T02:28:34.656Z,96.17
2023-02-09T02:29:34.682Z,96.28
2023-02-09T02:30:34.721Z,96.39
2023-02-09T02:31:34.679Z,96.39
2023-02-09T02:32:34.601Z,96.39
2023-02-09T02:33:34.604Z,96.28
2023-02-09T02:34:34.577Z,96.49
2023-02-09T02:35:34.583Z,96.81
2023-02-09T02:36:34.622Z,96.92
2023-02-09T02:37:34.579Z,96.81
2023-02-09T02:38:34.543Z,96.92
2023-02-09T02:39:34.532Z,96.70
2023-02-09T02:40:34.522Z,96.92
2023-02-09T02:41:34.524Z,96.92
2023-02-09T02:42:34.523Z,97.03
2023-02-09T02:43:34.491Z,96.92
2023-02-09T02:44:34.486Z,97.03
2023-02-09T02:45:34.489Z,97.13
2023-02-09T02:46:34.520Z,96.92
2023-02-09T02:47:34.474Z,97.13
2023-02-09T02:48:35.358Z,97.24
2023-02-09T02:49:34.442Z,97.13
2023-02-09T02:50:34.520Z,97.24
2023-02-09T02:51:34.416Z,97.24
2023-02-09T02:52:34.442Z,97.45
2023-02-09T02:53:34.485Z,97.45
2023-02-09T02:54:34.398Z,97.56
2023-02-09T02:55:34.387Z,97.52
2023-02-09T02:56:34.395Z,97.52
2023-02-09T02:57:34.377Z,97.41
2023-02-09T02:58:34.407Z,97.41
2023-02-09T02:59:34.352Z,97.41
2023-02-09T03:00:34.396Z,97.30
2023-02-09T03:01:34.449Z,97.30
2023-02-09T03:02:34.328Z,97.30
2023-02-09T03:03:34.308Z,97.20
2023-02-09T03:04:34.344Z,97.20
2023-02-09T03:05:34.398Z,97.20
2023-02-09T03:06:34.279Z,97.20
2023-02-09T03:07:34.295Z,97.20
2023-02-09T03:08:34.307Z,97.20
2023-02-09T03:09:34.254Z,97.09
2023-02-09T03:10:34.264Z,96.98
2023-02-09T03:11:34.242Z,96.98
2023-02-09T03:12:34.227Z,96.88
2023-02-09T03:13:34.385Z,96.92
2023-02-09T03:14:34.215Z,96.81
2023-02-09T03:15:34.195Z,96.92
2023-02-09T03:16:34.226Z,96.81
2023-02-09T03:17:34.200Z,96.81
2023-02-09T03:18:34.162Z,96.81
2023-02-09T03:19:34.161Z,96.81
2023-02-09T03:20:34.150Z,96.70
2023-02-09T03:21:34.145Z,96.60
2023-02-09T03:22:34.164Z,96.53
2023-02-09T03:23:34.119Z,96.43
2023-02-09T03:24:34.186Z,96.53
2023-02-09T03:25:34.122Z,96.43
2023-02-09T03:26:34.092Z,96.43
2023-02-09T03:27:34.097Z,96.32
2023-02-09T03:28:34.176Z,96.26
2023-02-09T03:29:34.075Z,96.36
2023-02-09T03:30:34.214Z,96.36
2023-02-09T03:31:34.068Z,96.36
2023-02-09T03:32:34.035Z,96.36
2023-02-09T03:33:34.042Z,96.79
2023-02-09T03:34:34.012Z,97.11
2023-02-09T03:35:34.040Z,97.17
2023-02-09T03:36:34.014Z,97.28
2023-02-09T03:37:33.998Z,97.17
2023-02-09T03:38:34.027Z,96.86
2023-02-09T03:39:33.979Z,96.75
2023-02-09T03:40:33.992Z,96.69
2023-02-09T03:41:33.967Z,96.79
2023-02-09T03:42:33.946Z,97.00
2023-02-09T03:43:33.948Z,97.00
2023-02-09T03:44:33.940Z,97.11
2023-02-09T03:45:33.921Z,97.07
2023-02-09T03:46:34.929Z,97.17
2023-02-09T03:47:33.903Z,97.17
2023-02-09T03:48:33.878Z,96.96
2023-02-09T03:49:33.904Z,96.86
2023-02-09T03:50:33.900Z,96.96
2023-02-09T03:51:33.861Z,96.96
2023-02-09T03:52:33.852Z,96.96
2023-02-09T03:53:33.845Z,96.96
2023-02-09T03:54:33.827Z,96.96
2023-02-09T03:55:33.836Z,96.96
2023-02-09T03:56:33.905Z,96.96
2023-02-09T03:57:33.905Z,96.79
2023-02-09T03:58:33.787Z,96.90
2023-02-09T03:59:33.794Z,96.79
2023-02-09T04:00:33.820Z,96.90
2023-02-09T04:01:33.793Z,96.79
2023-02-09T04:02:34.403Z,97.00
2023-02-09T04:03:33.754Z,97.11
2023-02-09T04:04:33.776Z,97.33
2023-02-09T04:05:33.754Z,97.28
2023-02-09T04:06:33.871Z,97.28
2023-02-09T04:07:33.712Z,97.28
2023-02-09T04:08:33.765Z,97.28
2023-02-09T04:09:33.712Z,97.28
2023-02-09T04:10:33.885Z,97.07
2023-02-09T04:11:33.699Z,96.96
2023-02-09T04:12:33.672Z,96.90
2023-02-09T04:13:33.693Z,96.90
2023-02-09T04:14:33.641Z,96.79
2023-02-09T04:15:33.639Z,96.69
2023-02-09T04:16:33.733Z,96.47
2023-02-09T04:17:33.724Z,96.47
2023-02-09T04:18:41.108Z,96.26
2023-02-09T04:19:33.616Z,96.15
2023-02-09T04:20:33.590Z,96.15
2023-02-09T04:21:33.677Z,95.94
2023-02-09T04:22:33.611Z,95.94
2023-02-09T04:23:33.583Z,95.76
2023-02-09T04:24:33.606Z,95.76
2023-02-09T04:25:33.527Z,95.76
2023-02-09T04:26:33.515Z,95.87
2023-02-09T04:27:33.514Z,95.76
2023-02-09T04:28:33.505Z,95.87
2023-02-09T04:29:33.510Z,95.87
2023-02-09T04:30:33.545Z,95.83
2023-02-09T04:31:33.480Z,95.83
2023-02-09T04:32:33.500Z,95.72
2023-02-09T04:33:33.468Z,95.72
2023-02-09T04:34:33.456Z,95.61
2023-02-09T04:35:33.443Z,95.44
2023-02-09T04:36:33.451Z,95.44
2023-02-09T04:37:33.458Z,95.44
2023-02-09T04:38:33.410Z,95.44
2023-02-09T04:39:33.416Z,95.40
2023-02-09T04:40:33.420Z,95.40
2023-02-09T04:41:33.402Z,95.40
2023-02-09T04:42:33.404Z,95.44
2023-02-09T04:43:33.384Z,95.34
2023-02-09T04:44:33.412Z,95.34
2023-02-09T04:45:33.424Z,95.34
2023-02-09T04:46:33.373Z,95.23
2023-02-09T04:47:33.336Z,95.12
2023-02-09T04:48:33.337Z,95.06
2023-02-09T04:49:33.312Z,95.06
2023-02-09T04:50:33.297Z,95.27
2023-02-09T04:51:33.295Z,95.38
2023-02-09T04:52:33.401Z,95.48
2023-02-09T04:53:33.307Z,95.48
2023-02-09T04:54:33.266Z,95.48
2023-02-09T04:55:33.293Z,95.59
2023-02-09T04:56:33.296Z,95.76
2023-02-09T04:57:33.236Z,95.87
2023-02-09T04:58:33.270Z,95.98
2023-02-09T04:59:33.239Z,96.09
2023-02-09T05:00:33.303Z,95.98
2023-02-09T05:01:33.294Z,96.09
2023-02-09T05:02:33.185Z,96.09
2023-02-09T05:03:33.257Z,96.15
2023-02-09T05:04:33.194Z,96.15
2023-02-09T05:05:33.164Z,96.04
2023-02-09T05:06:33.153Z,96.04
2023-02-09T05:07:33.147Z,96.09
2023-02-09T05:08:33.132Z,96.15
2023-02-09T05:09:33.439Z,96.26
2023-02-09T05:10:33.146Z,96.36
2023-02-09T05:11:33.106Z,96.26
2023-02-09T05:12:33.101Z,96.15
2023-02-09T05:13:33.114Z,95.98
2023-02-09T05:14:33.079Z,95.98
2023-02-09T05:15:33.068Z,95.98
2023-02-09T05:16:33.090Z,96.09
2023-02-09T05:17:33.076Z,95.94
2023-02-09T05:18:33.063Z,95.87
2023-02-09T05:19:33.079Z,95.65
2023-02-09T05:20:33.017Z,95.55
2023-02-09T05:21:33.055Z,95.44
2023-02-09T05:22:33.007Z,95.34
2023-02-09T05:23:33.026Z,95.34
2023-02-09T05:24:32.997Z,95.34
2023-02-09T05:25:33.011Z,95.34
2023-02-09T05:26:32.990Z,95.34
2023-02-09T05:27:33.871Z,95.23
2023-02-09T05:28:32.992Z,95.12
2023-02-09T05:29:32.973Z,95.12
2023-02-09T05:30:32.972Z,95.12
2023-02-09T05:31:33.139Z,95.12
2023-02-09T05:32:32.956Z,95.12
2023-02-09T05:33:32.947Z,95.12
2023-02-09T05:34:32.890Z,95.12
2023-02-09T05:35:32.887Z,95.12
2023-02-09T05:36:32.879Z,95.12
2023-02-09T05:37:32.963Z,95.12
2023-02-09T05:38:33.511Z,95.08
2023-02-09T05:39:32.839Z,94.97
2023-02-09T05:40:32.829Z,94.91
2023-02-09T05:41:32.887Z,95.08
2023-02-09T05:42:32.816Z,95.08
2023-02-09T05:43:33.420Z,95.08
2023-02-09T05:44:32.814Z,94.97
2023-02-09T05:45:32.791Z,94.97
2023-02-09T05:46:37.398Z,94.97
2023-02-09T05:47:32.795Z,95.08
2023-02-09T05:48:32.761Z,95.08
2023-02-09T05:49:32.794Z,94.87
2023-02-09T05:50:32.822Z,94.76
2023-02-09T05:51:32.786Z,94.76
2023-02-09T05:52:32.720Z,94.65
2023-02-09T05:53:32.732Z,94.76
2023-02-09T05:54:32.702Z,94.76
2023-02-09T05:55:32.709Z,94.87
2023-02-09T05:56:32.717Z,94.97
2023-02-09T05:57:32.711Z,94.97
2023-02-09T05:58:32.692Z,95.08
2023-02-09T05:59:32.655Z,95.08
2023-02-09T06:00:32.647Z,95.08
2023-02-09T06:01:32.639Z,95.08
2023-02-09T06:02:32.668Z,95.08
2023-02-09T06:03:32.702Z,95.08
2023-02-09T06:04:32.632Z,95.08
2023-02-09T06:05:32.637Z,95.08
2023-02-09T06:06:32.583Z,95.08
2023-02-09T06:07:32.587Z,95.08
2023-02-09T06:08:32.598Z,95.08
2023-02-09T06:09:32.611Z,95.18
2023-02-09T06:10:32.671Z,94.87
2023-02-09T06:11:32.543Z,94.87
2023-02-09T06:12:32.523Z,94.71
2023-02-09T06:13:32.541Z,94.61
2023-02-09T06:14:32.562Z,94.71
2023-02-09T06:15:32.526Z,94.61
2023-02-09T06:16:37.394Z,94.50
2023-02-09T06:17:32.480Z,94.40
2023-02-09T06:18:32.484Z,94.61
2023-02-09T06:19:32.465Z,94.61
2023-02-09T06:20:32.500Z,94.50
2023-02-09T06:21:32.473Z,94.29
2023-02-09T06:22:32.448Z,94.29
2023-02-09T06:23:34.976Z,94.18
2023-02-09T06:24:32.412Z,94.18
2023-02-09T06:25:32.418Z,94.07
2023-02-09T06:26:32.501Z,94.07
2023-02-09T06:27:32.403Z,93.97
2023-02-09T06:28:32.449Z,93.97
2023-02-09T06:29:32.413Z,93.86
2023-02-09T06:30:33.010Z,93.86
2023-02-09T06:31:33.568Z,93.86
2023-02-09T06:32:32.350Z,93.97
2023-02-09T06:33:32.946Z,94.07
2023-02-09T06:34:32.361Z,94.29
2023-02-09T06:35:32.389Z,94.40
2023-02-09T06:36:32.317Z,94.18
2023-02-09T06:37:32.343Z,94.07
2023-02-09T06:38:32.305Z,94.07
2023-02-09T06:39:32.411Z,94.03
2023-02-09T06:40:32.266Z,93.82
2023-02-09T06:41:32.264Z,93.71
2023-02-09T06:42:32.266Z,93.54
2023-02-09T06:43:32.249Z,93.33
2023-02-09T06:44:32.256Z,93.43
2023-02-09T06:45:32.290Z,93.29
2023-02-09T06:46:32.305Z,93.22
2023-02-09T06:47:32.248Z,93.07
2023-02-09T06:48:32.224Z,93.07
2023-02-09T06:49:32.184Z,92.96
2023-02-09T06:50:32.254Z,93.29
2023-02-09T06:51:32.170Z,93.60
2023-02-09T06:52:32.157Z,93.67
2023-02-09T06:53:32.169Z,93.67
2023-02-09T06:54:32.158Z,93.57
2023-02-09T06:55:32.132Z,93.41
2023-02-09T06:56:32.174Z,93.31
2023-02-09T06:57:32.138Z,93.10
2023-02-09T06:58:32.097Z,92.99
2023-02-09T06:59:32.144Z,92.88
2023-02-09T07:00:32.117Z,92.88
2023-02-09T07:01:32.155Z,92.77
2023-02-09T07:02:32.114Z,92.77
2023-02-09T07:03:32.053Z,92.88
2023-02-09T07:04:32.045Z,92.99
2023-02-09T07:05:32.150Z,92.94
2023-02-09T07:06:32.047Z,92.94
2023-02-09T07:07:32.102Z,92.84
2023-02-09T07:08:32.079Z,92.84
2023-02-09T07:09:32.005Z,92.73
2023-02-09T07:10:31.993Z,92.69
2023-02-09T07:11:31.998Z,92.58
2023-02-09T07:12:31.977Z,92.58
2023-02-09T07:13:31.999Z,92.48
2023-02-09T07:14:31.997Z,92.58
2023-02-09T07:15:31.964Z,92.69
2023-02-09T07:16:31.929Z,92.65
2023-02-09T07:17:31.939Z,92.54
2023-02-09T07:18:31.925Z,92.54
2023-02-09T07:19:31.904Z,92.40
2023-02-09T07:20:31.895Z,92.40
2023-02-09T07:21:31.927Z,92.40
2023-02-09T07:22:31.890Z,92.14
2023-02-09T07:23:31.859Z,91.93
2023-02-09T07:24:31.858Z,91.72
2023-02-09T07:25:32.245Z,91.61
2023-02-09T07:26:31.836Z,91.50
2023-02-09T07:27:31.880Z,91.18
2023-02-09T07:28:31.903Z,91.14
2023-02-09T07:29:31.832Z,91.14
2023-02-09T07:30:31.815Z,91.14
2023-02-09T07:31:31.965Z,90.89
2023-02-09T07:32:31.827Z,90.57
2023-02-09T07:33:31.810Z,90.36
2023-02-09T07:34:31.784Z,90.36
2023-02-09T07:35:31.752Z,90.42
2023-02-09T07:36:31.734Z,90.31
2023-02-09T07:37:31.739Z,89.95
2023-02-09T07:38:31.723Z,89.53
2023-02-09T07:39:31.756Z,89.49
2023-02-09T07:40:31.728Z,89.06
2023-02-09T07:41:31.730Z,88.81
2023-02-09T07:42:31.709Z,88.56
2023-02-09T07:43:31.678Z,88.10
2023-02-09T07:44:31.666Z,87.25
2023-02-09T07:45:31.680Z,86.72
2023-02-09T07:46:31.725Z,85.97
2023-02-09T07:47:31.636Z,85.83
2023-02-09T07:48:31.662Z,85.51
2023-02-09T07:49:31.685Z,85.19
2023-02-09T07:50:31.618Z,84.88
2023-02-09T07:51:33.446Z,84.77
2023-02-09T07:52:31.611Z,84.59
2023-02-09T07:53:31.607Z,85.09
2023-02-09T07:54:31.592Z,84.88
2023-02-09T07:55:31.577Z,85.26
2023-02-09T07:56:31.584Z,85.54
2023-02-09T07:57:31.574Z,85.25
2023-02-09T07:58:31.577Z,83.94
2023-02-09T07:59:32.370Z,82.78
2023-02-09T08:00:31.505Z,82.57
2023-02-09T08:01:31.626Z,82.46
2023-02-09T08:02:31.498Z,81.62
2023-02-09T08:03:31.480Z,81.30
2023-02-09T08:04:31.489Z,81.30
2023-02-09T08:05:31.523Z,81.40
2023-02-09T08:06:41.461Z,81.40
2023-02-09T08:07:32.430Z,81.30
2023-02-09T08:08:31.439Z,81.62
2023-02-09T08:09:31.453Z,81.58
2023-02-09T08:10:31.409Z,81.23
2023-02-09T08:11:32.385Z,80.69
2023-02-09T08:12:31.433Z,80.48
2023-02-09T08:13:31.401Z,80.76
2023-02-09T08:14:31.377Z,81.01
2023-02-09T08:15:31.391Z,80.05
2023-02-09T08:16:35.957Z,78.96
2023-02-09T08:17:31.377Z,74.68
2023-02-09T08:18:31.335Z,73.08
2023-02-09T08:19:31.324Z,71.20
2023-02-09T08:20:31.401Z,69.24
2023-02-09T08:21:31.371Z,69.15
2023-02-09T08:22:31.880Z,64.54
2023-02-09T08:23:31.272Z,63.47
2023-02-09T08:24:31.279Z,62.74
2023-02-09T08:25:31.287Z,63.34
2023-02-09T08:26:31.259Z,62.24
2023-02-09T08:27:31.404Z,63.01
2023-02-09T08:28:43.118Z,60.14
2023-02-09T08:29:32.239Z,59.49
2023-02-09T08:30:31.213Z,56.83
2023-02-09T08:31:31.357Z,56.52
2023-02-09T08:32:31.202Z,56.08
2023-02-09T08:33:31.512Z,57.48
2023-02-09T08:34:31.196Z,55.51
2023-02-09T08:35:31.337Z,54.59
2023-02-09T08:36:31.164Z,55.66
2023-02-09T08:37:31.158Z,56.49
2023-02-09T08:38:31.150Z,53.56
2023-02-09T08:39:31.151Z,52.90
2023-02-09T08:40:31.098Z,54.25
2023-02-09T08:41:31.103Z,53.63
2023-02-09T08:42:31.076Z,53.21
2023-02-09T08:43:31.122Z,52.95
2023-02-09T08:44:31.080Z,52.38
2023-02-09T08:45:31.145Z,53.50
2023-02-09T08:46:31.236Z,53.76
2023-02-09T08:47:31.022Z,52.36
2023-02-09T08:48:31.019Z,52.80
2023-02-09T08:50:48.316Z,49.87
2023-02-09T08:51:48.246Z,50.60
2023-02-09T08:52:48.238Z,49.94
2023-02-09T08:53:48.906Z,50.33
2023-02-09T08:54:48.233Z,51.01
2023-02-09T08:55:48.677Z,49.82
2023-02-09T08:56:48.201Z,49.04
2023-02-09T08:57:48.196Z,49.54
2023-02-09T08:58:48.203Z,48.95
2023-02-09T08:59:48.146Z,47.04
2023-02-09T09:00:48.258Z,45.73
2023-02-09T09:01:48.140Z,47.94
2023-02-09T09:02:48.133Z,47.50
2023-02-09T09:03:48.209Z,47.74
2023-02-09T09:04:48.854Z,45.01
2023-02-09T09:05:48.405Z,45.90
2023-02-09T09:06:48.087Z,43.66
2023-02-09T09:07:48.103Z,44.24
2023-02-09T09:08:48.081Z,43.15
2023-02-09T09:09:48.115Z,42.20
2023-02-09T09:10:48.086Z,42.10
2023-02-09T09:11:48.021Z,40.92
2023-02-09T09:12:48.026Z,39.45
2023-02-09T09:13:48.080Z,39.34
2023-02-09T09:14:48.045Z,39.86
2023-02-09T09:15:48.523Z,40.00
2023-02-09T09:16:48.115Z,41.66
2023-02-09T09:17:47.953Z,40.53
2023-02-09T09:18:47.949Z,41.74
2023-02-09T09:19:47.946Z,42.02
2023-02-09T09:20:47.936Z,41.64
2023-02-09T09:21:47.924Z,39.26
2023-02-09T09:22:47.927Z,40.47
2023-02-09T09:23:47.888Z,39.69
2023-02-09T09:24:47.952Z,39.22
2023-02-09T09:25:48.267Z,38.07
2023-02-09T09:26:47.864Z,37.83
2023-02-09T09:27:47.923Z,36.77
2023-02-09T09:28:47.853Z,36.77
2023-02-09T09:29:47.960Z,38.38
2023-02-09T09:30:47.853Z,37.95
2023-02-09T09:31:47.840Z,37.71
2023-02-09T09:32:47.853Z,37.11
2023-02-09T09:33:47.801Z,36.12
2023-02-09T09:34:47.806Z,34.77
2023-02-09T09:35:48.082Z,36.36
2023-02-09T09:36:47.752Z,37.68
2023-02-09T09:37:47.837Z,37.02
2023-02-09T09:38:47.765Z,34.43
2023-02-09T09:39:47.771Z,34.60
2023-02-09T09:40:47.733Z,33.25
2023-02-09T09:41:47.695Z,32.84
2023-02-09T09:42:48.957Z,34.70
2023-02-09T09:43:47.697Z,32.95
2023-02-09T09:44:47.738Z,33.76
2023-02-09T09:45:48.103Z,34.81
2023-02-09T09:46:47.811Z,36.35
2023-02-09T09:47:47.678Z,39.19
2023-02-09T09:48:47.673Z,40.66
2023-02-09T09:49:47.618Z,39.74
2023-02-09T09:50:47.651Z,40.49
2023-02-09T09:51:47.672Z,38.48
2023-02-09T09:52:47.610Z,36.46
2023-02-09T09:53:47.602Z,34.66
2023-02-09T09:54:47.554Z,36.98
2023-02-09T09:55:47.877Z,36.63
2023-02-09T09:56:47.582Z,34.15
2023-02-09T09:57:47.585Z,34.19
2023-02-09T09:58:47.522Z,35.14
2023-02-09T09:59:47.507Z,34.70
2023-02-09T10:00:47.673Z,35.08
2023-02-09T10:01:47.527Z,33.31
2023-02-09T10:02:47.467Z,33.73
2023-02-09T10:03:47.505Z,33.65
2023-02-09T10:04:47.632Z,35.11
2023-02-09T10:05:47.910Z,34.99
2023-02-09T10:06:47.432Z,34.36
2023-02-09T10:07:47.425Z,33.90
2023-02-09T10:08:47.405Z,32.45
2023-02-09T10:09:47.388Z,34.59
2023-02-09T10:10:47.641Z,34.46
2023-02-09T10:11:47.420Z,34.43
2023-02-09T10:12:47.410Z,33.71
2023-02-09T10:13:47.350Z,33.08
2023-02-09T10:14:47.341Z,33.34
2023-02-09T10:15:47.595Z,32.09
2023-02-09T10:16:47.496Z,32.28
2023-02-09T10:17:47.315Z,31.22
2023-02-09T10:18:47.338Z,30.11
2023-02-09T10:19:47.287Z,31.47
2023-02-09T10:20:47.283Z,32.18
2023-02-09T10:21:47.343Z,31.12
2023-02-09T10:22:47.262Z,30.29
2023-02-09T10:23:47.309Z,29.77
2023-02-09T10:24:47.249Z,28.85
2023-02-09T10:25:47.577Z,29.64
2023-02-09T10:26:47.422Z,27.99
2023-02-09T10:27:47.205Z,28.60
2023-02-09T10:28:47.254Z,29.84
2023-02-09T10:29:47.218Z,30.69
2023-02-09T10:30:47.218Z,30.80
2023-02-09T10:31:47.477Z,30.98
2023-02-09T10:32:47.153Z,29.19
2023-02-09T10:33:47.129Z,28.75
2023-02-09T10:34:47.117Z,26.81
2023-02-09T10:35:47.454Z,29.99
2023-02-09T10:36:47.137Z,30.35
2023-02-09T10:37:47.106Z,29.48
2023-02-09T10:38:47.089Z,27.84
2023-02-09T10:39:47.078Z,29.28
2023-02-09T10:40:47.106Z,28.54
2023-02-09T10:41:47.084Z,27.10
2023-02-09T10:42:47.080Z,27.19
2023-02-09T10:43:47.041Z,27.19
2023-02-09T10:44:47.047Z,26.86
2023-02-09T10:45:47.428Z,26.95
2023-02-09T10:46:47.020Z,26.12
2023-02-09T10:47:46.994Z,26.31
2023-02-09T10:48:47.005Z,25.80
2023-02-09T10:49:46.954Z,24.98
2023-02-09T10:50:47.569Z,25.10
2023-02-09T10:51:46.934Z,25.51
2023-02-09T10:52:46.937Z,25.72
2023-02-09T10:53:46.924Z,27.43
2023-02-09T10:54:46.921Z,25.72
2023-02-09T10:55:47.170Z,27.25
2023-02-09T10:56:46.928Z,27.84
2023-02-09T10:57:46.879Z,25.19
2023-02-09T10:58:46.882Z,26.58
2023-02-09T10:59:46.869Z,26.90
2023-02-09T11:00:46.940Z,25.38
2023-02-09T11:01:46.853Z,26.58
2023-02-09T11:02:46.882Z,25.88
2023-02-09T11:03:46.878Z,24.45
2023-02-09T11:04:46.906Z,26.65
2023-02-09T11:05:47.183Z,28.81
2023-02-09T11:06:46.800Z,31.02
2023-02-09T11:07:54.983Z,31.38
2023-02-09T11:08:46.779Z,30.93
2023-02-09T11:09:46.873Z,28.54
2023-02-09T11:10:47.446Z,30.57
2023-02-09T11:11:46.814Z,29.83
2023-02-09T11:12:46.729Z,28.61
2023-02-09T11:13:46.724Z,28.31
2023-02-09T11:14:46.754Z,28.60
2023-02-09T11:15:47.141Z,31.43
2023-02-09T11:16:46.708Z,32.30
2023-02-09T11:17:46.669Z,31.41
2023-02-09T11:18:46.663Z,32.24
2023-02-09T11:19:46.662Z,30.90
2023-02-09T11:20:46.652Z,31.38
2023-02-09T11:21:46.666Z,31.76
2023-02-09T11:22:46.621Z,34.60
2023-02-09T11:23:46.613Z,33.63
2023-02-09T11:24:46.604Z,33.47
2023-02-09T11:25:46.885Z,31.88
2023-02-09T11:26:46.584Z,31.95
2023-02-09T11:27:46.606Z,30.27
2023-02-09T11:28:46.564Z,30.68
2023-02-09T11:29:46.551Z,31.10
2023-02-09T11:30:46.968Z,34.44
2023-02-09T11:31:46.668Z,31.31
2023-02-09T11:32:46.584Z,35.13
2023-02-09T11:33:46.515Z,32.43
2023-02-09T11:34:46.498Z,33.64
2023-02-09T11:35:46.494Z,31.05
2023-02-09T11:36:46.475Z,31.85
2023-02-09T11:37:46.463Z,30.45
2023-02-09T11:38:46.502Z,30.76
2023-02-09T11:39:46.447Z,32.46
2023-02-09T11:40:46.810Z,32.24
2023-02-09T11:41:46.438Z,32.14
2023-02-09T11:42:46.441Z,32.97
2023-02-09T11:43:46.435Z,35.78
2023-02-09T11:44:46.398Z,34.17
2023-02-09T11:45:46.387Z,31.35
2023-02-09T11:46:51.019Z,30.57
2023-02-09T11:47:46.367Z,32.58
2023-02-09T11:48:46.475Z,35.05
2023-02-09T11:49:46.339Z,34.57
2023-02-09T11:50:46.686Z,34.80
2023-02-09T11:51:46.356Z,32.29
2023-02-09T11:52:46.321Z,34.53
2023-02-09T11:53:46.331Z,36.02
2023-02-09T11:54:46.307Z,34.64
2023-02-09T11:55:46.329Z,35.66
2023-02-09T11:56:46.972Z,35.39
2023-02-09T11:57:46.254Z,33.95
2023-02-09T11:58:46.351Z,34.12
2023-02-09T11:59:46.242Z,37.15
2023-02-09T12:00:55.960Z,38.35
2023-02-09T12:01:47.205Z,35.76
2023-02-09T12:02:46.450Z,35.16
2023-02-09T12:03:46.209Z,36.34
2023-02-09T12:04:46.330Z,34.94
2023-02-09T12:05:46.176Z,36.53
2023-02-09T12:06:46.199Z,36.82
2023-02-09T12:07:46.144Z,35.93
2023-02-09T12:08:46.180Z,35.89
2023-02-09T12:09:46.122Z,33.41
2023-02-09T12:10:46.464Z,36.02
2023-02-09T12:11:46.122Z,36.96
2023-02-09T12:12:46.107Z,35.15
2023-02-09T12:13:46.092Z,33.38
2023-02-09T12:14:46.070Z,33.54
2023-02-09T12:15:46.128Z,31.46
2023-02-09T12:16:51.001Z,31.12
2023-02-09T12:17:46.128Z,29.99
2023-02-09T12:18:46.245Z,32.33
2023-02-09T12:19:46.048Z,32.43
2023-02-09T12:20:46.390Z,30.67
2023-02-09T12:21:46.106Z,34.33
2023-02-09T12:22:46.086Z,36.55
2023-02-09T12:23:45.971Z,37.92
2023-02-09T12:24:45.976Z,37.21
2023-02-09T12:25:46.096Z,34.28
2023-02-09T12:26:46.030Z,33.90
2023-02-09T12:27:45.965Z,37.32
2023-02-09T12:28:45.999Z,37.30
2023-02-09T12:29:45.908Z,37.57
2023-02-09T12:30:46.316Z,37.32
2023-02-09T12:31:46.425Z,37.83
2023-02-09T12:32:45.884Z,38.59
2023-02-09T12:33:45.879Z,40.29
2023-02-09T12:34:45.937Z,40.39
2023-02-09T12:35:45.866Z,40.99
2023-02-09T12:36:45.909Z,39.82
2023-02-09T12:37:45.902Z,40.45
2023-02-09T12:38:49.497Z,41.06
2023-02-09T12:39:45.927Z,43.33
2023-02-09T12:40:46.174Z,42.47
2023-02-09T12:41:45.799Z,42.90
2023-02-09T12:42:45.839Z,43.32
2023-02-09T12:43:45.754Z,43.42
2023-02-09T12:44:45.780Z,44.14
2023-02-09T12:45:46.798Z,43.79
2023-02-09T12:46:45.766Z,40.44
2023-02-09T12:47:45.777Z,39.50
2023-02-09T12:48:45.709Z,39.75
2023-02-09T12:49:45.688Z,40.68
2023-02-09T12:50:45.730Z,41.15
2023-02-09T12:51:45.699Z,43.40
2023-02-09T12:52:45.679Z,45.05
2023-02-09T12:53:45.718Z,44.95